X  Fechar Metar - Info de Aeroporto     LYNI Nis Airport
Temperatura
24°C Temperatura
15°C Ptº Orvalho
57% Humidade



Vento
3 M/S
7 MPH
11 KM/H
6 NÓS



100°
L
Condições Atuais

Area Aguaceiros Area Aguaceiros
Pressão 1009.92 (hPa) - 29.82 (inHg)
Visibilidade 6.2 (milha) - 10 (km)
Aeroporto
Código-Aeropoto LYNI

Localização: Nis Airport
Distância: 63 (km)

Metar:
LYNI 131800Z 10006KT 080V140 9999 VCSH FEW033TCU FEW040 24/15 Q1010 TEMPO 24015G25KT 5000 TSRA SCT033CB SCT040

Hora: 13-08-2022 20:00 CEST